tititudorancea.com
Station Historical Data
Daily Summary for September 19, 2018 Units:  Metric    English   Both
« Previous Day
Next Day »
Daily Weekly Monthly Yearly Custom
  High: Low: Average:
Temperature: -17.8 °C 3.4 °C 8.3 °C
Dew Point: -17.8 °C 1.1 °C 3.1 °C
Humidity: Humidity % 46 % 71 %
Wind Speed: 0 km/h 0 km/h 11.1 km/h
Wind Gust: 0 km/h - -
Wind:- - West
Pressure: 0 hPa 1009 hPa -
Precipitation: 0 mm    
Historical Graphs
 
 
Ararat weather Find more about Weather in Ararat, AU


 



 


Tabular Data for September 19, 2018
Time Temperature Dew Point Pressure Wind Wind Speed Wind Gust Humidity Rainfall Rate (Hourly)
-17.8 °C -17.8 °C 0 hPa Calm     Humidity % 0 mm
00:04 7.5 °C 3.9 °C 1009.7 hPa WNW 18.5 km/h 16.7 km/h 78 % 0 mm
00:09 7.5 °C 4.1 °C 1009.7 hPa WNW 20.4 km/h 10.8 km/h 79 % 0 mm
00:14 7.5 °C 4.1 °C 1009.7 hPa WNW 20.4 km/h 10.1 km/h 79 % 0 mm
00:19 7.5 °C 3.9 °C 1009.7 hPa NW 18.5 km/h 13.7 km/h 78 % 0 mm
00:24 7.6 °C 3.9 °C 1009.7 hPa North 20.9 km/h 12.4 km/h 78 % 0 mm
00:29 7.6 °C 4 °C 1009.4 hPa NW 18.5 km/h 13.5 km/h 78 % 0 mm
00:34 7.7 °C 4.1 °C 1009.4 hPa NW 16.7 km/h 11.9 km/h 78 % 0 mm
00:39 7.5 °C 3.9 °C 1009.4 hPa WNW 19.3 km/h 14.5 km/h 78 % 0 mm
00:44 7.4 °C 3.8 °C 1009.4 hPa North 14.8 km/h 9 km/h 78 % 0 mm
00:49 7.3 °C 3.9 °C 1009.4 hPa WNW 20.4 km/h 11.9 km/h 79 % 0 mm
00:54 7.2 °C 3.8 °C 1009.4 hPa WNW 22.2 km/h 15.6 km/h 79 % 0 mm
00:59 7.1 °C 3.7 °C 1009.4 hPa WNW 14.8 km/h 11.6 km/h 79 % 0 mm
01:04 7.1 °C 3.7 °C 1009.4 hPa WNW 17.7 km/h 13.7 km/h 79 % 0 mm
01:09 7.1 °C 3.7 °C 1009.4 hPa North 22.2 km/h 13 km/h 79 % 0 mm
01:14 7 °C 3.6 °C 1009.4 hPa NW 14.5 km/h 9.3 km/h 79 % 0 mm
01:19 6.9 °C 3.5 °C 1009.4 hPa NW 13 km/h 6 km/h 79 % 0 mm
01:24 6.8 °C 3.4 °C 1009.4 hPa WNW 11.1 km/h 8.9 km/h 79 % 0 mm
01:29 6.8 °C 3.6 °C 1009.4 hPa WNW 14.8 km/h 10.8 km/h 80 % 0 mm
01:34 6.7 °C 3.5 °C 1009.4 hPa WNW 14.8 km/h 7.6 km/h 80 % 0 mm
01:39 6.6 °C 3.4 °C 1009.4 hPa WNW 14.5 km/h 11.9 km/h 80 % 0 mm
01:44 6.6 °C 3.4 °C 1009.4 hPa North 7.4 km/h 5.1 km/h 80 % 0 mm
01:49 6.6 °C 3.3 °C 1009.4 hPa WNW 13 km/h 10.9 km/h 80 % 0 mm
01:54 6.6 °C 3.4 °C 1009.4 hPa West 24.1 km/h 14.8 km/h 80 % 0 mm
01:59 6.7 °C 3.5 °C 1009.4 hPa West 18.5 km/h 14.3 km/h 80 % 0 mm
02:04 6.7 °C 3.7 °C 1009.4 hPa North 16.7 km/h 11.7 km/h 81 % 0 mm
02:09 6.6 °C 3.5 °C 1009.4 hPa West 14.8 km/h 12.9 km/h 81 % 0 mm
02:14 6.4 °C 3.6 °C 1009.4 hPa North 11.1 km/h 9.3 km/h 82 % 0 mm
02:19 6.3 °C 3.4 °C 1009 hPa West 9.3 km/h 7.9 km/h 82 % 0 mm
02:24 6.1 °C 3.3 °C 1009 hPa North 9.3 km/h 6.8 km/h 82 % 0 mm
02:29 6 °C 3.3 °C 1009 hPa West 5.6 km/h 5.1 km/h 83 % 0 mm
02:34 5.9 °C 3.2 °C 1009 hPa West 6.4 km/h 4.3 km/h 83 % 0 mm
02:39 5.7 °C 3.1 °C 1009 hPa West 7.4 km/h 6.4 km/h 83 % 0 mm
02:44 5.7 °C 3.2 °C 1009 hPa West 14.8 km/h 7.9 km/h 84 % 0 mm
02:49 5.6 °C 2.9 °C 1009 hPa West 5.6 km/h 4.7 km/h 83 % 0 mm
02:54 5.6 °C 2.9 °C 1009 hPa North 5.6 km/h 2.9 km/h 83 % 0 mm
02:59 5.4 °C 2.8 °C 1009 hPa North 3.7 km/h 1 km/h 83 % 0 mm
03:04 5.4 °C 2.7 °C 1009 hPa West 6.4 km/h 4.8 km/h 83 % 0 mm
03:09 5.4 °C 2.9 °C 1009.4 hPa West 5.6 km/h 2.9 km/h 84 % 0 mm
03:14 5.4 °C 2.8 °C 1009.4 hPa West 5.6 km/h 2.3 km/h 83 % 0 mm
03:19 5.5 °C 3 °C 1009 hPa West 1.9 km/h   84 % 0 mm
03:24 5.4 °C 2.8 °C 1009 hPa West 4.8 km/h 3.2 km/h 83 % 0 mm
03:29 5.3 °C 2.7 °C 1009 hPa West 8 km/h 7.1 km/h 83 % 0 mm
03:34 5.2 °C 2.6 °C 1009 hPa West 5.6 km/h 3.5 km/h 83 % 0 mm
03:39 5.2 °C 2.7 °C 1009 hPa West 9.3 km/h 7.9 km/h 84 % 0 mm
03:44 5.1 °C 2.6 °C 1009 hPa West 5.6 km/h 3.9 km/h 84 % 0 mm
03:49 5.2 °C 2.5 °C 1009 hPa North 5.6 km/h 1 km/h 83 % 0 mm
03:54 5.1 °C 2.3 °C 1009.4 hPa West 5.6 km/h 3.9 km/h 82 % 0 mm
03:59 4.9 °C 2.1 °C 1009.7 hPa WSW 9.3 km/h 8.4 km/h 82 % 0 mm
04:04 4.9 °C 2.2 °C 1009.7 hPa North 9.3 km/h 7.1 km/h 83 % 0 mm
04:09 5.1 °C 2.6 °C 1009.7 hPa WSW 1.6 km/h 0.8 km/h 84 % 0 mm
04:14 5.3 °C 2.8 °C 1009.7 hPa Calm   0.5 km/h 84 % 0 mm
04:19 5.3 °C 2.7 °C 1009.7 hPa WSW 8 km/h 8.7 km/h 83 % 0 mm
04:24 5.5 °C 2.7 °C 1009.7 hPa WSW 5.6 km/h 0.5 km/h 82 % 0 mm
04:29 5.6 °C 2.6 °C 1009.7 hPa WSW 9.3 km/h 6 km/h 81 % 0 mm
04:34 5.6 °C 2.4 °C 1010 hPa WSW 3.7 km/h   80 % 0 mm
04:39 5.6 °C 2.4 °C 1010 hPa WSW 14.8 km/h 4.8 km/h 80 % 0 mm
04:44 5.7 °C 2.5 °C 1010 hPa WSW 5.6 km/h 2.9 km/h 80 % 0 mm
04:49 5.7 °C 2.3 °C 1010 hPa North 7.4 km/h 7.1 km/h 79 % 0 mm
04:54 5.7 °C 2.3 °C 1010 hPa WSW 5.6 km/h 1.3 km/h 79 % 0 mm
04:59 5.7 °C 2.3 °C 1010 hPa North 11.1 km/h 4.3 km/h 79 % 0 mm
05:04 5.7 °C 2.6 °C 1010 hPa WSW 3.7 km/h 2.4 km/h 80 % 0 mm
05:09 5.7 °C 2.4 °C 1010.4 hPa WSW 11.1 km/h 5 km/h 79 % 0 mm
05:14 5.7 °C 2.2 °C 1010.4 hPa WSW 9.3 km/h 4.7 km/h 78 % 0 mm
05:19 5.6 °C 2.3 °C 1010.4 hPa WSW 8 km/h 6.4 km/h 79 % 0 mm
05:24 5.6 °C 2.3 °C 1010.4 hPa North 8 km/h 5.5 km/h 79 % 0 mm
05:29 5.6 °C 2.2 °C 1010.4 hPa West 18.5 km/h 12.1 km/h 79 % 0 mm
05:34 5.7 °C 2.3 °C 1010.4 hPa West 16.7 km/h 6.9 km/h 79 % 0 mm
05:39 5.7 °C 2.3 °C 1010.4 hPa North 16.7 km/h 12.6 km/h 79 % 0 mm
05:44 5.7 °C 2.5 °C 1010.7 hPa West 16.7 km/h 10.3 km/h 80 % 0 mm
05:49 5.6 °C 2.4 °C 1010.7 hPa West 14.8 km/h 11.3 km/h 80 % 0 mm
05:54 5.6 °C 2.4 °C 1010.7 hPa North 13 km/h 4.3 km/h 80 % 0 mm
05:59 5.4 °C 2.3 °C 1010.7 hPa West 5.6 km/h 5.3 km/h 80 % 0 mm
06:04 5.4 °C 2.3 °C 1010.7 hPa West 13 km/h 7.4 km/h 80 % 0 mm
06:09 5.4 °C 2.3 °C 1011.1 hPa West 11.1 km/h 8.5 km/h 80 % 0 mm
06:14 5.4 °C 2.3 °C 1011.1 hPa West 13 km/h 7.9 km/h 80 % 0 mm
06:19 5.4 °C 2.2 °C 1011.1 hPa North 9.7 km/h 4.3 km/h 80 % 0 mm
06:24 5.4 °C 2.2 °C 1011.1 hPa West 7.4 km/h 5.1 km/h 80 % 0 mm
06:29 5.4 °C 2.2 °C 1011.4 hPa WSW 11.1 km/h 5.8 km/h 80 % 0 mm
06:34 5.4 °C 2.2 °C 1011.4 hPa WSW 5.6 km/h 3.2 km/h 80 % 0 mm
06:39 5.4 °C 2.3 °C 1011.4 hPa West 11.3 km/h 5.8 km/h 80 % 0 mm
06:44 5.6 °C 2.4 °C 1011.4 hPa North 18.5 km/h 7.6 km/h 80 % 0 mm
06:49 5.7 °C 2.6 °C 1011.4 hPa North 13 km/h 7.1 km/h 80 % 0 mm
06:54 5.9 °C 2.5 °C 1011.4 hPa WSW 11.3 km/h 7.6 km/h 79 % 0 mm
06:59 6 °C 2.6 °C 1011.4 hPa WSW 12.9 km/h 7.2 km/h 79 % 0 mm
07:04 6.1 °C 2.6 °C 1011.7 hPa WSW 11.3 km/h 8 km/h 78 % 0 mm
07:09 6.2 °C 2.7 °C 1011.7 hPa WSW 16.7 km/h 13.5 km/h 78 % 0 mm
07:14 6.3 °C 2.8 °C 1011.7 hPa WSW 16.7 km/h 11.9 km/h 78 % 0 mm
07:19 6.4 °C 2.9 °C 1012.1 hPa West 12.9 km/h 11.4 km/h 78 % 0 mm
07:24 6.5 °C 2.8 °C 1012.1 hPa North 18.5 km/h 9.2 km/h 77 % 0 mm
07:29 6.6 °C 2.9 °C 1012.1 hPa West 16.7 km/h 7.1 km/h 77 % 0 mm
07:34 6.7 °C 2.9 °C 1012.1 hPa West 14.8 km/h 6.9 km/h 77 % 0 mm
07:39 6.8 °C 3 °C 1012.4 hPa West 11.1 km/h 6.1 km/h 77 % 0 mm
07:44 6.9 °C 3 °C 1012.4 hPa West 14.8 km/h 8.9 km/h 76 % 0 mm
07:49 7.1 °C 3.2 °C 1012.4 hPa West 11.1 km/h 8.4 km/h 76 % 0 mm
07:54 7.3 °C 3.3 °C 1012.8 hPa North 18.5 km/h 8 km/h 76 % 0 mm
07:59 7.4 °C 3.2 °C 1012.8 hPa West 9.3 km/h 4.3 km/h 75 % 0 mm
08:04 7.6 °C 3.4 °C 1012.8 hPa West 14.8 km/h 10.8 km/h 75 % 0 mm
08:09 7.7 °C 3.5 °C 1012.8 hPa North 7.4 km/h 6.8 km/h 75 % 0 mm
08:14 7.8 °C 3.6 °C 1012.8 hPa West 11.1 km/h 3.5 km/h 75 % 0 mm
08:19 7.9 °C 3.8 °C 1013.1 hPa WSW 14.8 km/h 7.2 km/h 75 % 0 mm
08:24 8.2 °C 3.8 °C 1013.1 hPa North 19.3 km/h 14.3 km/h 74 % 0 mm
08:29 8.2 °C 3.6 °C 1013.1 hPa WSW 18.5 km/h 11.7 km/h 73 % 0 mm
08:34 8.2 °C 3.7 °C 1013.1 hPa WSW 9.7 km/h 7.9 km/h 73 % 0 mm
08:39 8.4 °C 3.8 °C 1013.4 hPa West 18.5 km/h 17.2 km/h 73 % 0 mm
08:44 8.4 °C 3.9 °C 1013.4 hPa West 18.5 km/h 18.5 km/h 73 % 0 mm
08:49 8.4 °C 3.7 °C 1013.4 hPa WSW 24.1 km/h 17.5 km/h 72 % 0 mm
08:54 8.5 °C 4.1 °C 1013.4 hPa WSW 14.8 km/h 10.8 km/h 74 % 0 mm
08:59 8.7 °C 3.9 °C 1013.1 hPa North 20.4 km/h 15.4 km/h 72 % 0 mm
09:04 8.8 °C 4 °C 1013.4 hPa West 22.2 km/h 20.1 km/h 72 % 0 mm
09:09 8.8 °C 4 °C 1013.4 hPa West 27.8 km/h 17.5 km/h 72 % 0 mm
09:14 8.9 °C 3.7 °C 1013.4 hPa SW 25.9 km/h 13.5 km/h 70 % 0 mm
09:19 9 °C 4 °C 1013.4 hPa WSW 18.5 km/h 13.2 km/h 71 % 0 mm
09:24 8.9 °C 3.7 °C 1013.4 hPa SW 18.5 km/h 8.7 km/h 70 % 0 mm
09:29 9.1 °C 4.1 °C 1013.4 hPa SSW 20.9 km/h 18.8 km/h 71 % 0 mm
09:34 9.3 °C 4.3 °C 1013.8 hPa WSW 14.8 km/h 12.4 km/h 71 % 0 mm
09:39 9.4 °C 4.4 °C 1013.8 hPa WSW 20.9 km/h 12.4 km/h 71 % 0 mm
09:44 9.4 °C 4.1 °C 1013.8 hPa WSW 18.5 km/h 17.2 km/h 69 % 0 mm
09:49 9.6 °C 4.2 °C 1013.8 hPa SSW 18.5 km/h 12.4 km/h 69 % 0 mm
09:54 9.7 °C 3.7 °C 1013.8 hPa SSW 25.9 km/h 14.2 km/h 66 % 0 mm
09:59 9.9 °C 3.8 °C 1013.8 hPa SW 17.7 km/h 13.2 km/h 66 % 0 mm
10:04 9.9 °C 3.4 °C 1013.8 hPa West 22.2 km/h 15.6 km/h 64 % 0 mm
10:09 10.2 °C 3.3 °C 1014.1 hPa North 20.4 km/h 18.8 km/h 62 % 0 mm
10:14 10.2 °C 3 °C 1014.1 hPa WSW 18.5 km/h 18 km/h 61 % 0 mm
10:19 10.3 °C 3.3 °C 1013.8 hPa SW 24.1 km/h 11.9 km/h 62 % 0 mm
10:24 10.5 °C 3.9 °C 1013.8 hPa WSW 20.4 km/h 14.5 km/h 64 % 0 mm
10:29 10.8 °C 3.8 °C 1013.8 hPa WSW 24.1 km/h 16.3 km/h 62 % 0 mm
10:34 10.7 °C 3.3 °C 1013.8 hPa SW 18.5 km/h 12.6 km/h 60 % 0 mm
10:39 10.4 °C 3.2 °C 1013.8 hPa SW 24.1 km/h 14 km/h 61 % 0 mm
10:44 10.1 °C 2.7 °C 1014.1 hPa West 24.1 km/h 15.1 km/h 60 % 0 mm
10:49 10.4 °C 3.7 °C 1014.1 hPa SW 14.8 km/h 8.2 km/h 63 % 0 mm
10:54 10.7 °C 3.2 °C 1014.1 hPa SW 18.5 km/h 14 km/h 60 % 0 mm
10:59 10.4 °C 2.5 °C 1014.1 hPa North 16.7 km/h 13.5 km/h 58 % 0 mm
11:04 10.5 °C 2.8 °C 1014.1 hPa SSW 18.5 km/h 13 km/h 59 % 0 mm
11:09 10.6 °C 3.2 °C 1014.1 hPa WSW 16.7 km/h 10 km/h 60 % 0 mm
11:14 10.4 °C 2.8 °C 1014.1 hPa SW 18.5 km/h 15.9 km/h 59 % 0 mm
11:19 10.8 °C 3.4 °C 1014.1 hPa North 11.1 km/h 5.8 km/h 60 % 0 mm
11:24 11.4 °C 3.2 °C 1014.1 hPa North 24.1 km/h 21.1 km/h 57 % 0 mm
11:29 10.8 °C 2.9 °C 1014.1 hPa SW 20.4 km/h 15.8 km/h 58 % 0 mm
11:34 10.3 °C 2.8 °C 1014.1 hPa SW 22.2 km/h 18.3 km/h 60 % 0 mm
11:39 10.4 °C 3.7 °C 1014.1 hPa WSW 18.5 km/h 8.9 km/h 63 % 0 mm
11:44 11 °C 3.5 °C 1014.1 hPa WSW 18.5 km/h 11.3 km/h 60 % 0 mm
11:49 11.5 °C 3.5 °C 1014.1 hPa WSW 16.7 km/h 8.4 km/h 58 % 0 mm
11:54 11.9 °C 3.1 °C 1014.1 hPa SW 18.5 km/h 15 km/h 55 % 0 mm
11:59 11.3 °C 2.1 °C 1014.1 hPa West 20.4 km/h 15.4 km/h 53 % 0 mm
12:04 11.5 °C 3 °C 1014.1 hPa WSW 18.5 km/h 9 km/h 56 % 0 mm
12:09 11.4 °C 2.2 °C 1014.1 hPa North 22.2 km/h 15.6 km/h 53 % 0 mm
12:14 11 °C 2.3 °C 1014.1 hPa WSW 16.7 km/h 12.1 km/h 55 % 0 mm
12:19 10.8 °C 2.4 °C 1014.1 hPa West 14.8 km/h 11.3 km/h 56 % 0 mm
12:24 11.3 °C 2.3 °C 1014.1 hPa North 16.7 km/h 14.5 km/h 54 % 0 mm
12:29 11.2 °C 2.2 °C 1014.1 hPa SW 14.8 km/h 9.5 km/h 54 % 0 mm
12:34 11.1 °C 2.2 °C 1014.1 hPa SW 13 km/h 4.3 km/h 54 % 0 mm
12:39 11.7 °C 1.8 °C 1014.1 hPa North 25.9 km/h 17.2 km/h 51 % 0 mm
12:44 11.4 °C 1.1 °C 1014.1 hPa SW 16.7 km/h 9.8 km/h 49 % 0 mm
12:49 11.7 °C 2.7 °C 1014.1 hPa WSW 17.7 km/h 16.1 km/h 54 % 0 mm
12:54 12.2 °C 2.4 °C 1014.1 hPa West 18.5 km/h 12.7 km/h 51 % 0 mm
12:59 12.3 °C 1.9 °C 1014.1 hPa WSW 14.8 km/h 10 km/h 49 % 0 mm
13:04 11.9 °C 1.6 °C 1014.1 hPa SW 20.4 km/h 13.7 km/h 49 % 0 mm
13:09 11.6 °C 1.5 °C 1013.8 hPa WSW 18.5 km/h 11.3 km/h 50 % 0 mm
13:14 11.6 °C 2.1 °C 1014.1 hPa WSW 14.8 km/h 8 km/h 52 % 0 mm
13:19 11.7 °C 1.6 °C 1013.8 hPa WSW 16.1 km/h 10 km/h 50 % 0 mm
13:24 12.3 °C 2.5 °C 1013.8 hPa West 20.4 km/h 13.2 km/h 51 % 0 mm
13:29 12.7 °C 2.2 °C 1013.8 hPa West 18.5 km/h 12.6 km/h 49 % 0 mm
13:34 12.8 °C 2.6 °C 1013.8 hPa SW 20.4 km/h 16.9 km/h 50 % 0 mm
13:39 12.5 °C 2.9 °C 1013.8 hPa SSW 18.5 km/h 8.5 km/h 52 % 0 mm
13:44 12.7 °C 2.2 °C 1013.8 hPa SW 11.1 km/h 7.4 km/h 49 % 0 mm
13:49 12.8 °C 2.1 °C 1013.8 hPa West 14.8 km/h 8.4 km/h 48 % 0 mm
13:54 12.9 °C 1.8 °C 1013.8 hPa North 20.4 km/h 14.3 km/h 47 % 0 mm
13:59 12.9 °C 1.8 °C 1013.8 hPa SW 20.9 km/h 11.6 km/h 47 % 0 mm
14:04 12.7 °C 1.4 °C 1013.8 hPa SW 13 km/h 6.6 km/h 46 % 0 mm
14:09 12.3 °C 1.3 °C 1013.8 hPa SW 18.5 km/h 15 km/h 47 % 0 mm
14:14 12.2 °C 1.2 °C 1013.8 hPa SW 14.8 km/h 13 km/h 47 % 0 mm
14:19 12.1 °C 1.7 °C 1013.8 hPa South 16.7 km/h 14.5 km/h 49 % 0 mm
14:24 11.9 °C 1.8 °C 1013.8 hPa SSW 25.9 km/h 15.8 km/h 50 % 0 mm
14:29 11.8 °C 2.3 °C 1013.8 hPa WSW 18.5 km/h 13.2 km/h 52 % 0 mm
14:34 11.8 °C 2.3 °C 1013.8 hPa SSW 22.2 km/h 13.7 km/h 52 % 0 mm
14:39 11.7 °C 2.4 °C 1014.1 hPa SW 20.9 km/h 14.3 km/h 53 % 0 mm
14:44 11.7 °C 3.2 °C 1014.1 hPa SW 16.1 km/h 13.4 km/h 56 % 0 mm
14:49 12.2 °C 4.4 °C 1014.1 hPa SSW 16.7 km/h 11.9 km/h 59 % 0 mm
14:54 12.1 °C 3.8 °C 1014.1 hPa SW 16.7 km/h 14.3 km/h 57 % 0 mm
14:59 11.7 °C 3.9 °C 1014.1 hPa SW 11.1 km/h 6.4 km/h 59 % 0 mm
15:04 11.5 °C 3.8 °C 1014.1 hPa SSW 14.8 km/h 12.6 km/h 59 % 0 mm
15:09 11.8 °C 3.8 °C 1014.1 hPa SSW 16.7 km/h 7.4 km/h 58 % 0 mm
15:14 11.9 °C 3.6 °C 1014.1 hPa SSW 11.1 km/h 8.4 km/h 57 % 0 mm
15:19 11.8 °C 3.6 °C 1014.1 hPa SSW 11.1 km/h 7.2 km/h 57 % 0 mm
15:24 11.6 °C 3.6 °C 1014.1 hPa SSW 11.1 km/h 8.4 km/h 58 % 0 mm
15:29 11.7 °C 3.4 °C 1014.1 hPa SSW 8 km/h 8.7 km/h 57 % 0 mm
15:34 11.8 °C 3.3 °C 1014.1 hPa SSW 9.7 km/h 8 km/h 56 % 0 mm
15:39 11.9 °C 3.1 °C 1014.1 hPa SW 8 km/h 7.2 km/h 55 % 0 mm
15:44 11.9 °C 3.2 °C 1014.1 hPa SSW 9.3 km/h 7.2 km/h 55 % 0 mm
15:49 11.9 °C 3.1 °C 1014.1 hPa North 11.3 km/h 9.7 km/h 55 % 0 mm
15:54 11.7 °C 3.2 °C 1014.1 hPa North 9.7 km/h 7.6 km/h 56 % 0 mm
15:59 11.5 °C 3.3 °C 1014.1 hPa WSW 11.3 km/h 9.8 km/h 57 % 0 mm
16:04 11.4 °C 3.2 °C 1014.4 hPa SW 14.8 km/h 10.5 km/h 57 % 0 mm
16:09 11.4 °C 3.2 °C 1014.4 hPa SW 16.7 km/h 11.6 km/h 57 % 0 mm
16:14 11.4 °C 3.2 °C 1014.4 hPa SW 11.3 km/h 6.1 km/h 57 % 0 mm
16:19 11.5 °C 3.3 °C 1014.4 hPa SW 14.8 km/h 12.1 km/h 57 % 0 mm
16:24 11.3 °C 3.1 °C 1014.4 hPa SSW 22.2 km/h 14.2 km/h 57 % 0 mm
16:29 11.2 °C 3.4 °C 1014.4 hPa North 12.9 km/h 9 km/h 59 % 0 mm
16:34 11.3 °C 3.6 °C 1014.4 hPa SW 9.7 km/h 5.8 km/h 59 % 0 mm
16:39 11.6 °C 3.6 °C 1014.4 hPa SW 13 km/h 10.1 km/h 58 % 0 mm
16:44 11.7 °C 3.4 °C 1014.4 hPa SW 11.1 km/h 4.7 km/h 57 % 0 mm
16:49 11.8 °C 3.3 °C 1014.4 hPa SW 9.7 km/h 5.5 km/h 56 % 0 mm
16:54 11.8 °C 3.3 °C 1014.4 hPa SW 8 km/h 8 km/h 56 % 0 mm
16:59 11.7 °C 3.2 °C 1014.4 hPa SW 9.3 km/h 3.1 km/h 56 % 0 mm
17:04 11.5 °C 3.3 °C 1014.4 hPa SW 11.1 km/h 5 km/h 57 % 0 mm
17:09 11.3 °C 3.1 °C 1014.4 hPa SW 5.6 km/h 5.5 km/h 57 % 0 mm
17:14 11.2 °C 2.9 °C 1014.8 hPa SW 3.7 km/h 1.8 km/h 57 % 0 mm
17:19 11 °C 3.3 °C 1014.8 hPa North 5.6 km/h 4.5 km/h 59 % 0 mm
17:24 10.8 °C 3.4 °C 1014.8 hPa SW 11.1 km/h 7.1 km/h 60 % 0 mm
17:29 10.7 °C 3.5 °C 1014.8 hPa SW 7.4 km/h 4 km/h 61 % 0 mm
17:34 10.7 °C 3.7 °C 1014.8 hPa SW 5.6 km/h 2.7 km/h 62 % 0 mm
17:39 10.7 °C 3.9 °C 1014.8 hPa SW 11.1 km/h 7.4 km/h 63 % 0 mm
17:44 10.6 °C 3.8 °C 1015.1 hPa SW 9.3 km/h 6.9 km/h 63 % 0 mm
17:49 10.6 °C 4 °C 1015.1 hPa SW 7.4 km/h 5.6 km/h 64 % 0 mm
17:54 10.4 °C 3.9 °C 1015.1 hPa SW 5.6 km/h 4 km/h 64 % 0 mm
17:59 10.3 °C 4.1 °C 1015.1 hPa SW 5.6 km/h 3.4 km/h 65 % 0 mm
18:04 10.2 °C 3.9 °C 1015.1 hPa SW 3.7 km/h 0.5 km/h 65 % 0 mm
18:09 10.2 °C 3.9 °C 1015.5 hPa SW 5.6 km/h 2.1 km/h 65 % 0 mm
18:14 10.1 °C 4.1 °C 1015.5 hPa Calm     66 % 0 mm
18:19 10 °C 3.9 °C 1015.5 hPa Calm     66 % 0 mm
18:24 9.9 °C 4.1 °C 1015.5 hPa SW 3.7 km/h 1.9 km/h 67 % 0 mm
18:29 9.7 °C 4.3 °C 1015.8 hPa North 3.7 km/h 2.7 km/h 69 % 0 mm
18:34 9.5 °C 4.3 °C 1015.8 hPa North 5.6 km/h 2.4 km/h 70 % 0 mm
18:39 9.4 °C 4.4 °C 1015.8 hPa SW 3.7 km/h   71 % 0 mm
18:44 9.4 °C 4.6 °C 1015.8 hPa SW 3.7 km/h 0.6 km/h 72 % 0 mm
18:49 9.3 °C 4.6 °C 1015.8 hPa SW 1.6 km/h 1.1 km/h 72 % 0 mm
18:54 9.3 °C 4.7 °C 1015.8 hPa North 5.6 km/h 1.8 km/h 73 % 0 mm
18:59 9.3 °C 4.7 °C 1015.8 hPa Calm     73 % 0 mm
19:04 9.3 °C 4.7 °C 1015.8 hPa Calm     73 % 0 mm
19:09 9.2 °C 4.4 °C 1016.1 hPa Calm     72 % 0 mm
19:14 9 °C 4.2 °C 1016.1 hPa Calm     72 % 0 mm
19:19 8.8 °C 4.3 °C 1016.1 hPa Calm     73 % 0 mm
19:24 8.7 °C 4.1 °C 1016.1 hPa Calm     73 % 0 mm
19:29 8.5 °C 4.1 °C 1016.5 hPa SW 3.2 km/h 2.3 km/h 74 % 0 mm
19:34 8.4 °C 4.3 °C 1016.5 hPa North 11.1 km/h 9 km/h 75 % 0 mm
19:39 8.5 °C 4.3 °C 1016.5 hPa SW 8 km/h 6.4 km/h 75 % 0 mm
19:44 8.6 °C 4.2 °C 1016.5 hPa SW 5.6 km/h 3.4 km/h 74 % 0 mm
19:49 8.6 °C 4.2 °C 1016.5 hPa SW 5.6 km/h 6.1 km/h 74 % 0 mm
19:54 8.5 °C 4.1 °C 1016.8 hPa SW 6.4 km/h 3.5 km/h 74 % 0 mm
19:59 8.5 °C 4.1 °C 1016.5 hPa SW 5.6 km/h 3.7 km/h 74 % 0 mm
20:04 8.4 °C 4.1 °C 1016.8 hPa SW 5.6 km/h 2.4 km/h 74 % 0 mm
20:09 8.5 °C 4.1 °C 1016.8 hPa SW 5.6 km/h 2.7 km/h 74 % 0 mm
20:14 8.5 °C 4.1 °C 1016.8 hPa SW 5.6 km/h 4.7 km/h 74 % 0 mm
20:19 8.5 °C 4.1 °C 1016.8 hPa SW 7.4 km/h 5.5 km/h 74 % 0 mm
20:24 8.6 °C 4.2 °C 1016.8 hPa SW 9.3 km/h 8.4 km/h 74 % 0 mm
20:29 8.6 °C 4.2 °C 1017.2 hPa SW 9.3 km/h 5.5 km/h 74 % 0 mm
20:34 8.6 °C 4.2 °C 1017.2 hPa SW 9.3 km/h 6.4 km/h 74 % 0 mm
20:39 8.4 °C 4.1 °C 1017.2 hPa SW 7.4 km/h 4 km/h 74 % 0 mm
20:44 8.4 °C 4 °C 1017.2 hPa SW 3.7 km/h   74 % 0 mm
20:49 8.3 °C 3.9 °C 1017.2 hPa SW 1.9 km/h   74 % 0 mm
20:54 8.2 °C 4.1 °C 1017.2 hPa SW 3.7 km/h 1.9 km/h 75 % 0 mm
20:59 8.1 °C 3.9 °C 1017.2 hPa SW 3.7 km/h 1.9 km/h 75 % 0 mm
21:04 8 °C 4 °C 1017.2 hPa SW 1.9 km/h   76 % 0 mm
21:09 7.9 °C 3.9 °C 1017.2 hPa Calm     76 % 0 mm
21:14 7.9 °C 3.9 °C 1017.2 hPa Calm     76 % 0 mm
21:19 7.8 °C 4 °C 1017.5 hPa Calm     77 % 0 mm
21:24 7.6 °C 3.8 °C 1017.5 hPa Calm     77 % 0 mm
21:29 7.3 °C 3.7 °C 1017.5 hPa Calm     78 % 0 mm
21:34 7.1 °C 3.7 °C 1017.5 hPa Calm     79 % 0 mm
21:39 6.8 °C 3.6 °C 1017.5 hPa Calm     80 % 0 mm
21:44 6.7 °C 3.7 °C 1017.5 hPa Calm     81 % 0 mm
21:49 6.6 °C 3.6 °C 1017.5 hPa Calm     81 % 0 mm
21:54 6.4 °C 3.4 °C 1017.8 hPa Calm     81 % 0 mm
21:59 6.3 °C 3.5 °C 1017.8 hPa Calm     82 % 0 mm
22:04 6.2 °C 3.3 °C 1017.8 hPa Calm     82 % 0 mm
22:09 5.9 °C 3.1 °C 1017.8 hPa Calm     82 % 0 mm
22:14 5.8 °C 3.1 °C 1017.8 hPa Calm     83 % 0 mm
22:19 5.7 °C 3.2 °C 1017.8 hPa Calm     84 % 0 mm
22:24 5.5 °C 3 °C 1017.8 hPa Calm     84 % 0 mm
22:29 5.3 °C 3 °C 1017.8 hPa Calm     85 % 0 mm
22:34 5.2 °C 2.8 °C 1018.2 hPa Calm     85 % 0 mm
22:39 5 °C 2.8 °C 1018.2 hPa Calm     86 % 0 mm
22:44 4.9 °C 2.8 °C 1018.2 hPa Calm     86 % 0 mm
22:49 4.8 °C 2.7 °C 1018.2 hPa Calm     86 % 0 mm
22:54 4.7 °C 2.6 °C 1018.2 hPa Calm     86 % 0 mm
22:59 4.5 °C 2.5 °C 1018.2 hPa Calm     87 % 0 mm
23:04 4.3 °C 2.3 °C 1018.2 hPa Calm     87 % 0 mm
23:09 4.4 °C 2.6 °C 1018.2 hPa Calm     88 % 0 mm
23:14 4.3 °C 2.4 °C 1018.2 hPa Calm     88 % 0 mm
23:19 4.2 °C 2.3 °C 1018.2 hPa Calm     88 % 0 mm
23:24 4.1 °C 2.2 °C 1018.2 hPa Calm     88 % 0 mm
23:29 3.9 °C 2.1 °C 1018.2 hPa Calm     88 % 0 mm
23:34 3.7 °C 1.9 °C 1018.2 hPa Calm     88 % 0 mm
23:39 3.7 °C 2 °C 1018.2 hPa Calm     89 % 0 mm
23:44 3.5 °C 1.8 °C 1018.2 hPa Calm     89 % 0 mm
23:49 3.4 °C 1.8 °C 1018.2 hPa Calm     89 % 0 mm
23:54 3.5 °C 2 °C 1018.2 hPa SW 1.6 km/h 0.5 km/h 90 % 0 mm
23:59 3.5 °C 2 °C 1018.2 hPa North 1.9 km/h 0.6 km/h 90 % 0 mm
Ararat Weather
Compliments of Weather Underground - 2.25 mb
Click here to send mail.


ABOUT

Live weather data from Ararat, Victoria, Australia, 3377
Data uploaded from Cumulus every 5 minutes to Weather Underground.
This site then downloads the raw data for formatting and display.
Metric and imperial data can be displayed. Graphs and historical data available.
Includes Sun and Moon times and rain image live from BOM.

Check out Ararat Weather on Facebook, Twitter and Google +

Help support ongoing costs by checking out the ads





Follow @AraratWeather